Home > Products > Valid Products > TAF

000
FTUS41 KRLX 012300
TAFCRW
TAF
KCRW 012320Z 0200/0224 VRB03KT P6SM SCT100
     FM021500 23008KT P6SM SCT035
     FM021900 24010KT P6SM VCTS SCT035CB=



000
FTUS41 KRLX 012300
TAFHTS
TAF
KHTS 012320Z 0200/0224 20004KT P6SM SKC
     FM021500 22008KT P6SM SCT035
     FM021700 24010KT P6SM VCTS SCT035CB=



000
FTUS41 KRLX 012300
TAFPKB
TAF
KPKB 012320Z 0200/0224 20006KT P6SM SCT080
     FM020300 21005KT P6SM SCT045
     FM020900 21004KT P6SM SCT100
     FM021400 22007KT P6SM SCT035
     FM021600 22009KT P6SM VCTS SCT035CB
     FM022200 26007KT P6SM SCT040=



000
FTUS41 KRLX 012300
TAFEKN
TAF
KEKN 012320Z 0200/0224 00000KT P6SM SCT040 BKN080
      TEMPO 0200/0201 2SM SHRA BR BKN030
     FM020100 00000KT P6SM SCT100
     FM020900 00000KT P6SM SCT045
     FM021100 00000KT P6SM BKN040
     FM021400 25007KT P6SM BKN035
     FM022000 25010KT P6SM VCTS SCT040CB=



000
FTUS41 KRLX 012300
TAFCKB
TAF
KCKB 012320Z 0200/0224 20004KT P6SM SCT045 BKN080
     FM020100 VRB03KT P6SM SCT100
     FM020700 00000KT P6SM SCT040
     FM021000 00000KT P6SM BKN040
     FM021400 22006KT P6SM BKN035
     FM021900 23009KT P6SM VCTS SCT035CB=



000
FTUS41 KRLX 012300
TAFBKW
TAF
KBKW 012320Z 0200/0224 23004KT P6SM BKN080
     FM020200 23005KT P6SM SKC
     FM021200 24004KT P6SM BKN035
     FM021500 25008KT P6SM BKN030
     FM021600 25009KT P6SM BKN030
     FM022000 25009KT P6SM VCTS SCT035CB=



000
FTUS41 KRLX 012200 AAA
TAFPKB
TAF AMD
KPKB 012226Z 0122/0218 20009KT P6SM SCT040 BKN100
     FM020300 21005KT P6SM VCSH BKN045
     FM020600 20004KT 6SM BR BKN040
     FM021300 22009KT P6SM VCTS BKN035CB=



000
FTUS41 KRLX 012200 AAB
TAFCRW
TAF AMD
KCRW 012224Z 0122/0218 22007KT P6SM SCT040 BKN080
     FM020000 VRB03KT P6SM SKC
     FM020200 00000KT P6SM BKN080
     FM021500 23008KT P6SM VCTS BKN035CB=



000
FTUS41 KRLX 012200 AAB
TAFHTS
TAF AMD
KHTS 012222Z 0122/0218 20005KT P6SM SKC
     FM020100 20004KT P6SM BKN080
     FM020700 21004KT 6SM BR BKN050
     FM021300 21005KT P6SM BKN045
     FM021400 22007KT P6SM VCTS BKN040CB=



000
FTUS41 KRLX 012100 AAB
TAFEKN
TAF AMD
KEKN 012131Z 0122/0218 25007KT P6SM SCT040
      TEMPO 0123/0124 2SM SHRA BR BKN035
     FM020000 24004KT P6SM SKC
     FM020300 00000KT 6SM BR SKC
     FM020500 00000KT 4SM BR SKC
     FM021100 00000KT 1SM BR SCT001 SCT030
     FM021300 24006KT 6SM BR FEW001 BKN030
     FM021600 25010G15KT P6SM VCTS BKN035CB=



000
FTUS41 KRLX 012000 AAA
TAFEKN
TAF AMD
KEKN 012052Z 0121/0218 24007KT P6SM SCT040
      TEMPO 0121/0124 2SM SHRA BR BKN035
     FM020000 24004KT P6SM SKC
     FM020300 00000KT 6SM BR SKC
     FM020500 00000KT 4SM BR SKC
     FM021100 00000KT 1SM BR SCT001 SCT030
     FM021300 24006KT 6SM BR FEW001 BKN030
     FM021600 25010G15KT P6SM VCTS BKN035CB=



000
FTUS41 KRLX 012000 AAA
TAFCRW
TAF AMD
KCRW 012012Z 0120/0218 23008KT P6SM SCT035
     FM012100 28012G25KT 1SM TSRA SCT025CB BKN035
     FM012135 23007KT P6SM BKN035
     FM020400 VRB03KT 6SM BR SCT045
     FM020800 00000KT 3SM BR SCT045
     FM021100 00000KT 2SM BR FEW001 SCT035
     FM021300 23008KT P6SM BKN035
     FM021600 23008KT P6SM VCTS BKN035CB=



000
FTUS41 KRLX 011800 AAA
TAFHTS
TAF AMD
KHTS 011835Z 0119/0218 23008KT P6SM BKN040
     FM011945 23010G35KT 2SM TSRA SCT025CB BKN035
     FM012030 20005KT P6SM BKN035
     FM020700 21004KT 6SM BR BKN050
     FM021300 21005KT P6SM BKN045
     FM021400 22007KT P6SM VCTS BKN040CB=



000
FTUS41 KRLX 011700
TAFHTS
TAF
KHTS 011737Z 0118/0218 23008KT P6SM BKN040
     FM012100 23010G15KT P6SM SHRA VCTS SCT030CB BKN040
      TEMPO 0121/0122 2SM SHRA BKN025
     FM012300 20005KT P6SM BKN040
     FM020700 21004KT 6SM BR BKN050
     FM021300 21005KT P6SM BKN045
     FM021400 22007KT P6SM VCTS BKN040CB=



000
FTUS41 KRLX 011700
TAFCKB
TAF
KCKB 011737Z 0118/0218 23008KT P6SM VCSH BKN050
     FM012300 22005KT P6SM SCT050
     FM020400 VRB03KT P6SM BKN045
     FM020600 00000KT P6SM VCSH BKN035
     FM020800 00000KT 6SM BR BKN035
     FM021500 22006KT P6SM VCTS BKN035CB=



000
FTUS41 KRLX 011700
TAFCRW
TAF
KCRW 011737Z 0118/0218 24010G15KT P6SM VCSH BKN035
      TEMPO 0118/0119 BKN025
     FM012100 23012G17KT P6SM SHRA VCTS SCT030CB BKN040
      TEMPO 0121/0122 2SM SHRA BKN025
     FM012300 22004KT P6SM BKN035
     FM020400 VRB03KT 6SM BR SCT045
     FM020800 00000KT 3SM BR SCT045
     FM021100 00000KT 2SM BR FEW001 SCT035
     FM021300 23008KT P6SM BKN035
     FM021600 23008KT P6SM VCTS BKN035CB=



000
FTUS41 KRLX 011700
TAFEKN
TAF
KEKN 011737Z 0118/0218 26009KT P6SM VCSH BKN045
     FM012300 24004KT P6SM SCT045
     FM020300 00000KT 6SM BR SCT045
     FM020500 00000KT 4SM BR SCT035
     FM021100 00000KT 1SM BR SCT001 SCT030
     FM021300 24006KT 6SM BR FEW001 BKN030
     FM021600 25010G15KT P6SM VCTS BKN035CB=



000
FTUS41 KRLX 011700
TAFPKB
TAF
KPKB 011737Z 0118/0218 22010G15KT P6SM VCTS BKN035CB
     FM012300 22006KT P6SM SCT045
     FM020200 21005KT P6SM VCSH BKN040
     FM020600 20004KT 6SM BR BKN040
     FM021300 22009KT P6SM VCTS BKN035CB=



000
FTUS41 KRLX 011700
TAFBKW
TAF
KBKW 011737Z 0118/0218 26010G15KT P6SM BKN035
     FM020000 22004KT P6SM SCT045
     FM020700 00000KT P6SM SCT030
     FM021200 25007KT P6SM BKN025
     FM021700 25009KT P6SM VCTS BKN030CB=



000
FTUS41 KRLX 011400 AAB
TAFCKB
TAF AMD
KCKB 011434Z 0115/0212 22004KT 6SM BR BKN009 OVC015
     FM011600 23007KT P6SM BKN025
     FM011800 24008KT P6SM BKN035
     FM012000 23007KT P6SM SCT040
     FM020100 21002KT P6SM SCT035
     FM020600 00000KT 5SM BR BKN025=



000
FTUS41 KRLX 011400 AAC
TAFHTS
TAF AMD
KHTS 011434Z 0115/0212 20007KT P6SM BKN015 OVC025
     FM011600 24007KT P6SM BKN035
     FM011900 23008KT P6SM SCT040
     FM020100 21003KT P6SM SCT035
     FM020700 00000KT 5SM BR BKN025=



000
FTUS41 KRLX 011400 AAC
TAFPKB
TAF AMD
KPKB 011434Z 0115/0212 21004KT P6SM OVC015
     FM011600 23005KT P6SM BKN030
     FM011700 24007KT P6SM BKN035
     FM011900 23008KT P6SM SCT040
     FM020100 21003KT P6SM SCT035
     FM020700 00000KT 5SM BR BKN025=



000
FTUS41 KRLX 011400 AAB
TAFCRW
TAF AMD
KCRW 011434Z 0115/0212 22006KT P6SM BKN025
     FM011700 23006KT P6SM BKN035
     FM012000 24007KT P6SM SCT040
     FM020000 19002KT P6SM SCT035
     FM020700 00000KT 5SM BR BKN025=



000
FTUS41 KRLX 011400 AAB
TAFEKN
TAF AMD
KEKN 011434Z 0115/0212 23006KT P6SM BKN015 OVC025
     FM011800 25008KT P6SM VCTS BKN035CB
     FM012200 19002KT P6SM SCT040
     FM020500 00000KT 5SM BR BKN025
     FM020800 00000KT 2SM BR SCT002 BKN020=



000
FTUS41 KRLX 011400 AAA
TAFBKW
TAF AMD
KBKW 011434Z 0115/0212 26005KT P6SM BKN015 BKN025
     FM011600 26008KT P6SM BKN035
     FM011800 25009KT P6SM SCT040
     FM020200 22005KT P6SM SCT035
     FM020700 20003KT 6SM BR BKN025=



000
FTUS41 KRLX 011300 AAA
TAFCRW
TAF AMD
KCRW 011303Z 0113/0212 20003KT 6SM BR OVC012
     FM011500 22004KT P6SM BKN025
     FM011700 23006KT P6SM BKN035
     FM012000 24007KT P6SM SCT040
     FM020000 19002KT P6SM SCT035
     FM020700 00000KT 5SM BR BKN025=



000
FTUS41 KRLX 011300 AAA
TAFCKB
TAF AMD
KCKB 011303Z 0113/0212 00000KT 4SM -RA BR OVC008
     FM011400 22004KT 6SM BR BKN012
     FM011600 23007KT P6SM BKN030
     FM011800 24008KT P6SM BKN035
     FM012000 23007KT P6SM SCT040
     FM020100 21002KT P6SM SCT035
     FM020600 00000KT 5SM BR BKN025=



000
FTUS41 KRLX 011300 AAB
TAFHTS
TAF AMD
KHTS 011303Z 0113/0212 20007KT P6SM OVC035
     FM011600 24007KT P6SM BKN035
     FM011900 23008KT P6SM SCT040
     FM020100 21003KT P6SM SCT035
     FM020700 00000KT 5SM BR BKN025=



000
FTUS41 KRLX 011300 AAA
TAFEKN
TAF AMD
KEKN 011303Z 0113/0212 00000KT 4SM -SHRA BR OVC013
     FM011500 25006KT P6SM BKN015
     FM011800 25008KT P6SM VCTS BKN035CB
     FM012200 19002KT P6SM SCT040
     FM020500 00000KT 5SM BR BKN025
     FM020800 00000KT 2SM BR SCT002 BKN020=



000
FTUS41 KRLX 011300 AAB
TAFPKB
TAF AMD
KPKB 011303Z 0113/0212 21004KT 6SM -SHRA BR OVC012
     FM011500 23005KT P6SM BKN030
     FM011600 24007KT P6SM BKN035
     FM011900 23008KT P6SM SCT040
     FM020100 21003KT P6SM SCT035
     FM020700 00000KT 5SM BR BKN025=



000
FTUS41 KRLX 011200 AAA
TAFHTS
TAF AMD
KHTS 011203Z 0112/0212 19002KT 4SM BR OVC008
      TEMPO 0112/0114 SCT008 OVC035
     FM011400 21004KT 6SM BR OVC012
     FM011500 23005KT P6SM BKN030
     FM011600 24007KT P6SM BKN035
     FM011900 23008KT P6SM SCT040
     FM020100 21003KT P6SM SCT035
     FM020700 00000KT 5SM BR BKN025=



000
FTUS41 KRLX 011200 AAA
TAFPKB
TAF AMD
KPKB 011202Z 0112/0212 19002KT 4SM BR OVC007
      TEMPO 0112/0113 2SM -RA BKN004
     FM011400 21004KT 6SM BR OVC012
     FM011500 23005KT P6SM BKN030
     FM011600 24007KT P6SM BKN035
     FM011900 23008KT P6SM SCT040
     FM020100 21003KT P6SM SCT035
     FM020700 00000KT 5SM BR BKN025=



000
FTUS41 KRLX 011100
TAFBKW
TAF
KBKW 011122Z 0112/0212 22004KT P6SM OVC015
     FM011400 26005KT P6SM BKN025
     FM011600 26008KT P6SM BKN035
     FM011800 25009KT P6SM SCT040
     FM020200 22005KT P6SM SCT035
     FM020700 20003KT 6SM BR BKN025=



000
FTUS41 KRLX 011100
TAFPKB
TAF
KPKB 011122Z 0112/0212 19002KT 4SM BR OVC007
     FM011400 21004KT 6SM BR OVC012
     FM011500 23005KT P6SM BKN030
     FM011600 24007KT P6SM BKN035
     FM011900 23008KT P6SM SCT040
     FM020100 21003KT P6SM SCT035
     FM020700 00000KT 5SM BR BKN025=



000
FTUS41 KRLX 011100
TAFCKB
TAF
KCKB 011122Z 0112/0212 00000KT 4SM BR OVC008
      TEMPO 0112/0113 -SHRA
     FM011400 22004KT 6SM BR BKN012
     FM011600 23007KT P6SM BKN030
     FM011800 24008KT P6SM BKN035
     FM012000 23007KT P6SM SCT040
     FM020100 21002KT P6SM SCT035
     FM020600 00000KT 5SM BR BKN025=



000
FTUS41 KRLX 011100
TAFEKN
TAF
KEKN 011122Z 0112/0212 00000KT 4SM -SHRA BR OVC008
     FM011400 23004KT 5SM BR OVC010
     FM011500 25006KT P6SM BKN015
     FM011800 25008KT P6SM VCTS BKN035CB
     FM012200 19002KT P6SM SCT040
     FM020500 00000KT 5SM BR BKN025
     FM020800 00000KT 2SM BR SCT002 BKN020=



000
FTUS41 KRLX 011100
TAFHTS
TAF
KHTS 011122Z 0112/0212 19002KT 4SM BR OVC008
     FM011400 21004KT 6SM BR OVC012
     FM011500 23005KT P6SM BKN030
     FM011600 24007KT P6SM BKN035
     FM011900 23008KT P6SM SCT040
     FM020100 21003KT P6SM SCT035
     FM020700 00000KT 5SM BR BKN025=



000
FTUS41 KRLX 011100
TAFCRW
TAF
KCRW 011122Z 0112/0212 00000KT 4SM BR OVC008
     FM011400 20003KT 6SM BR OVC012
     FM011600 22004KT P6SM BKN025
     FM011700 23006KT P6SM BKN035
     FM012000 24007KT P6SM SCT040
     FM020000 19002KT P6SM SCT035
     FM020700 00000KT 5SM BR BKN025=



000
FTUS41 KRLX 010800 AAA
TAFPKB
TAF AMD
KPKB 010825Z 0108/0206 21004KT P6SM SCT008 OVC015
      TEMPO 0108/0110 4SM SHRA BR BKN008
     FM011000 19002KT 4SM BR OVC008
     FM011300 21004KT 6SM BR OVC012
     FM011500 23005KT P6SM BKN030
     FM011600 24007KT P6SM BKN035
     FM011900 23008KT P6SM SCT040
     FM020100 21003KT P6SM SCT035=



000
FTUS41 KRLX 010800 AAA
TAFCKB
TAF AMD
KCKB 010825Z 0108/0206 00000KT 6SM -SHRA BR VCTS SCT008 OVC015CB
      TEMPO 0108/0110 4SM SHRA BR BKN008
     FM011000 00000KT 4SM BR OVC007
     FM011400 22004KT 6SM BR BKN015
     FM011600 23007KT P6SM BKN030
     FM011800 24008KT P6SM BKN035
     FM012000 23007KT P6SM SCT040
     FM020100 21002KT P6SM SCT035=



000
FTUS41 KRLX 010800 AAB
TAFBKW
TAF AMD
KBKW 010825Z 0108/0206 23006KT P6SM BKN025
     FM011000 22004KT P6SM BKN020
     FM011400 26005KT P6SM BKN035
     FM011600 26008KT P6SM BKN035
     FM011800 25009KT P6SM SCT040
     FM020200 19004KT P6SM SCT035=



000
FTUS41 KRLX 010800 AAA
TAFEKN
TAF AMD
KEKN 010825Z 0108/0206 00000KT 6SM SHRA BR SCT020 OVC035
      TEMPO 0108/0110 5SM -SHRA BR BKN020
     FM011000 00000KT 4SM BR OVC007
     FM011400 23004KT 5SM BR OVC010
     FM011500 25006KT P6SM BKN018
     FM011800 25008KT P6SM VCTS BKN035CB
     FM012200 VRB02KT P6SM SCT040=



000
FTUS41 KRLX 010800 AAA
TAFHTS
TAF AMD
KHTS 010825Z 0108/0206 21004KT P6SM OVC015
     FM011000 19002KT 4SM BR OVC008
     FM011300 21004KT 6SM BR OVC012
     FM011500 23005KT P6SM BKN030
     FM011600 24007KT P6SM BKN035
     FM011900 23008KT P6SM SCT040
     FM020100 21003KT P6SM SCT035=



000
FTUS41 KRLX 010800 AAA
TAFCRW
TAF AMD
KCRW 010825Z 0108/0206 00000KT 6SM BR SCT008 OVC015
      TEMPO 0108/0110 4SM -SHRA BR BKN008
     FM011000 00000KT 4SM BR OVC008
     FM011300 20003KT 6SM BR OVC012
     FM011600 22004KT P6SM BKN025
     FM011700 23006KT P6SM BKN035
     FM012000 24007KT P6SM SCT040
     FM020000 VRB02KT P6SM SCT035=



000
FTUS41 KRLX 010700 AAA
TAFBKW
TAF AMD
KBKW 010720Z 0107/0206 23006KT P6SM BKN025
     FM010900 22004KT P6SM BKN020
     FM011400 26005KT P6SM BKN035
     FM011600 26008KT P6SM BKN035
     FM011800 25009KT P6SM SCT040
     FM020200 19004KT P6SM SCT035=



000
FTUS41 KRLX 010500
TAFPKB
TAF
KPKB 010539Z 0106/0206 21004KT P6SM OVC015
     FM010900 19002KT 4SM BR OVC008
     FM011300 21004KT 6SM BR OVC012
     FM011500 23005KT P6SM BKN030
     FM011600 24007KT P6SM BKN035
     FM011900 23008KT P6SM SCT040
     FM020100 21003KT P6SM SCT035=



000
FTUS41 KRLX 010500
TAFHTS
TAF
KHTS 010539Z 0106/0206 21004KT P6SM OVC015
     FM010900 19002KT 4SM BR OVC008
     FM011300 21004KT 6SM BR OVC012
     FM011500 23005KT P6SM BKN030
     FM011600 24007KT P6SM BKN035
     FM011900 23008KT P6SM SCT040
     FM020100 21003KT P6SM SCT035=



000
FTUS41 KRLX 010500
TAFCRW
TAF
KCRW 010539Z 0106/0206 00000KT 5SM BR OVC015
     FM010900 00000KT 4SM BR OVC008
     FM011300 20003KT 6SM BR OVC012
     FM011600 22004KT P6SM BKN025
     FM011700 23006KT P6SM BKN035
     FM012000 24007KT P6SM SCT040
     FM020000 VRB02KT P6SM SCT035=



000
FTUS41 KRLX 010500
TAFBKW
TAF
KBKW 010539Z 0106/0206 21005KT P6SM BKN060
     FM010900 22004KT P6SM BKN035
     FM011100 24005KT P6SM BKN020
     FM011400 26005KT P6SM BKN035
     FM011600 26008KT P6SM BKN035
     FM011800 25009KT P6SM SCT040
     FM020200 19004KT P6SM SCT035=



000
FTUS41 KRLX 010500
TAFCKB
TAF
KCKB 010539Z 0106/0206 VRB02KT P6SM -SHRA OVC015
     FM010800 00000KT 5SM -SHRA BR OVC008
     FM011000 00000KT 3SM BR OVC007
     FM011400 22004KT 6SM BR BKN015
     FM011600 23007KT P6SM BKN030
     FM011800 24008KT P6SM BKN035
     FM012000 23007KT P6SM SCT040
     FM020100 21002KT P6SM SCT035=



000
FTUS41 KRLX 010500
TAFEKN
TAF
KEKN 010539Z 0106/0206 00000KT 6SM SHRA BR SCT020 OVC035
      TEMPO 0106/0109 5SM -SHRA BR BKN020
     FM010900 00000KT 4SM BR OVC008
     FM011000 00000KT 2SM BR OVC006
     FM011300 23004KT 4SM BR OVC010
     FM011500 25006KT P6SM BKN018
     FM011800 25008KT P6SM VCTS BKN035CB
     FM012200 VRB02KT P6SM SCT040=



000
FTUS41 KRLX 010200 AAA
TAFEKN
TAF AMD
KEKN 010241Z 0103/0124 VRB03KT P6SM BKN025
      TEMPO 0103/0107 2SM SHRA BR BKN015
     FM010700 00000KT 4SM BR OVC025
     FM010900 00000KT 2SM BR OVC025
     FM011200 00000KT 4SM BR BKN025
     FM011300 VRB03KT P6SM BKN025
     FM011600 25005KT P6SM BKN030
     FM012100 25006KT P6SM BKN035
     FM012300 24004KT P6SM SCT040=



000
FTUS41 KRLX 010200 AAB
TAFCRW
TAF AMD
KCRW 010207Z 0102/0124 19003KT P6SM SCT030 BKN040
      TEMPO 0102/0105 2SM SHRA BR BKN015
     FM010500 VRB03KT 4SM BR BKN040
     FM011400 23004KT P6SM BKN045
     FM011700 23006KT P6SM BKN030
     FM012000 23006KT P6SM SCT035=



000
FTUS41 KRLX 010200 CCA
TAFHTS
TAF COR
KHTS 010205Z 0102/0124 19005KT P6SM -RA SCT030 OVC040
      TEMPO 0102/0104 2SM SHRA BR BKN015
     FM010400 20005KT P6SM OVC035
     FM011600 22007KT P6SM BKN030
     FM012000 22007KT P6SM SCT035=



000
FTUS41 KRLX 010200 AAA
TAFHTS
TAF AMD
KHTS 010202Z 0102/0124 19005KT P6SM -RA SCT030 OVC040
      TEMPO 0102/0104 1SM SHRA BR BKN015
     FM010400 20005KT P6SM OVC035
     FM011600 22007KT P6SM BKN030
     FM012000 22007KT P6SM SCT035=



000
FTUS41 KRLX 010200 AAA
TAFHTS
TAF AMD
KHTS 010202Z 0102/0124 19005KT P6SM -RA SCT030 OVC040
      TEMPO 0102/0104 1SM SHRA BR BKN015
     FM010400 20005KT P6SM OVC035
     FM011600 22007KT P6SM BKN030
     FM012000 22007KT P6SM SCT035=



000
FTUS41 KRLX 010200 AAB
TAFPKB
TAF AMD
KPKB 010201Z 0102/0124 19004KT P6SM BKN020
      TEMPO 0102/0104 BKN015
     FM010400 20004KT P6SM BKN035
     FM010900 21004KT P6SM BKN030
     FM011100 21004KT P6SM BKN020
     FM011500 22006KT P6SM BKN025
     FM012100 21008KT P6SM SCT035=



000
FTUS41 KRLX 010200 AAB
TAFCKB
TAF AMD
KCKB 010200Z 0102/0124 20003KT P6SM OVC025
      TEMPO 0102/0103 5SM -RA BR BKN035
     FM010400 VRB03KT P6SM OVC025
      TEMPO 0104/0107 2SM SHRA BR BKN015
     FM011600 23006KT P6SM BKN025
     FM012000 22007KT P6SM SCT035=



000
FTUS41 KRLX 010100 AAA
TAFBKW
TAF AMD
KBKW 010156Z 0102/0124 23005KT P6SM SCT040 OVC060
     FM010300 27005KT P6SM SCT030 BKN040
      TEMPO 0103/0105 1SM SHRA BR BKN015
     FM010500 26004KT P6SM OVC045
     FM011700 26005KT P6SM SCT030
     FM012100 26006KT P6SM SCT035=



000
FTUS41 KRLX 010100 AAA
TAFBKW
TAF AMD
KBKW 010156Z 0102/0124 23005KT P6SM SCT040 OVC060
     FM010300 27005KT P6SM SCT030 BKN040
      TEMPO 0103/0105 1SM SHRA BR BKN015
     FM010500 26004KT P6SM OVC045
     FM011700 26005KT P6SM SCT030
     FM012100 26006KT P6SM SCT035=



000
FTUS41 KRLX 010100 AAA
TAFCRW
TAF AMD
KCRW 010102Z 0101/0124 19003KT P6SM SCT030 BKN040
      TEMPO 0102/0104 1SM SHRA BR BKN015
     FM010400 VRB03KT 4SM BR BKN040
     FM011400 23004KT P6SM BKN045
     FM011700 23006KT P6SM BKN030
     FM012000 23006KT P6SM SCT035=



000
FTUS41 KRLX 010000 AAA
TAFPKB
TAF AMD
KPKB 010001Z 0100/0124 20005KT P6SM BKN025
      TEMPO 0100/0102 BKN015
     FM010400 20004KT P6SM BKN035
     FM010900 21004KT P6SM BKN030
     FM011100 21004KT P6SM BKN020
     FM011500 22006KT P6SM BKN025
     FM012100 21008KT P6SM SCT035=



000
FTUS41 KRLX 010000 AAA
TAFCKB
TAF AMD
KCKB 010001Z 0100/0124 21005KT P6SM OVC025
      TEMPO 0100/0102 BKN015
     FM010300 VRB03KT P6SM OVC025
      TEMPO 0103/0106 2SM SHRA BR BKN015
     FM010600 VRB03KT P6SM OVC025
     FM011600 23006KT P6SM BKN025
     FM012000 22007KT P6SM SCT035=



000
FTUS41 KRLX 312300
TAFPKB
TAF
KPKB 312336Z 0100/0124 20005KT P6SM BKN025
     FM010400 20004KT P6SM BKN035
     FM010900 21004KT P6SM BKN030
     FM011100 21004KT P6SM BKN020
     FM011500 22006KT P6SM BKN025
     FM012100 21008KT P6SM SCT035=



000
FTUS41 KRLX 312300
TAFEKN
TAF
KEKN 312336Z 0100/0124 VRB03KT P6SM BKN025
      TEMPO 0102/0103 2SM SHRA BR BKN015
     FM010300 00000KT 5SM -RA BR OVC025
      TEMPO 0103/0107 2SM SHRA BR BKN015
     FM010700 00000KT 2SM BR OVC025
     FM010800 00000KT 2SM BR OVC025
     FM011200 00000KT 4SM BR BKN025
     FM011300 VRB03KT P6SM BKN025
     FM011600 25005KT P6SM BKN030
     FM012100 25006KT P6SM BKN035
     FM012300 24004KT P6SM SCT040=



000
FTUS41 KRLX 312300
TAFHTS
TAF
KHTS 312336Z 0100/0124 20006KT P6SM -RA SCT030 OVC040
      TEMPO 0100/0102 1SM SHRA BR BKN015
     FM010200 20005KT P6SM OVC035
     FM011600 22007KT P6SM BKN030
     FM012000 22007KT P6SM SCT035=



000
FTUS41 KRLX 312300
TAFCRW
TAF
KCRW 312336Z 0100/0124 20003KT P6SM SCT030 BKN040
      TEMPO 0100/0104 1SM SHRA BR BKN015
     FM010400 VRB03KT 4SM BR BKN040
     FM011400 23004KT P6SM BKN045
     FM011700 23006KT P6SM BKN030
     FM012000 23006KT P6SM SCT035=



000
FTUS41 KRLX 312300
TAFCKB
TAF
KCKB 312336Z 0100/0124 21005KT P6SM OVC025
      TEMPO 0103/0106 2SM SHRA BR BKN015
     FM010600 VRB03KT P6SM OVC025
     FM011600 23006KT P6SM BKN025
     FM012000 22007KT P6SM SCT035=



000
FTUS41 KRLX 312300
TAFBKW
TAF
KBKW 312336Z 0100/0124 23005KT P6SM SCT040 OVC060
     FM010200 27005KT P6SM SCT030 BKN040
      TEMPO 0102/0105 1SM SHRA BR BKN015
     FM010500 26004KT P6SM OVC045
     FM011700 26005KT P6SM SCT030
     FM012100 26006KT P6SM SCT035=



000
FTUS41 KRLX 312200 AAB
TAFCRW
TAF AMD
KCRW 312207Z 3122/0118 21004KT P6SM -RA SCT035 BKN050
      TEMPO 3122/3124 4SM SHRA BR BKN015
     FM010400 21006KT 4SM BR BKN025
     FM010800 24002KT 1SM BR OVC014
     FM011000 22004KT 1/2SM FG BKN001=



000
FTUS41 KRLX 312200 AAA
TAFHTS
TAF AMD
KHTS 312205Z 3122/0118 19007KT P6SM SCT015 BKN035
     FM011100 22004KT 4SM BR SCT003 BKN017
     FM011300 21006KT 4SM BR BKN020
     FM011500 22007KT P6SM SCT025=



000
FTUS41 KRLX 312200 AAA
TAFEKN
TAF AMD
KEKN 312204Z 3122/0118 21004KT P6SM SCT040 BKN080
     FM010500 20004KT 3SM BR SCT002 OVC040
     FM010900 26004KT 1SM BR BKN001 OVC018
     FM011400 24006KT 6SM BR BKN023=



000
FTUS41 KRLX 312200 AAB
TAFBKW
TAF AMD
KBKW 312203Z 3122/0118 22005KT P6SM SCT030 BKN070 OVC100
      TEMPO 0100/0103 2SM SHRA BKN015
     FM010800 23005KT 1SM BR OVC002
     FM011300 24006KT P6SM OVC012=



000
FTUS41 KRLX 312100 AAA
TAFPKB
TAF AMD
KPKB 312117Z 3121/0118 21006KT P6SM BKN025
     FM010300 16004KT 4SM BR OVC015
     FM010600 24004KT 2SM BR OVC008
     FM011000 20004KT 4SM BR BKN016
     FM011300 21005KT 4SM BR BKN020=



000
FTUS41 KRLX 312100 AAA
TAFCKB
TAF AMD
KCKB 312116Z 3121/0118 22009KT P6SM BKN035
     FM010600 20005KT 4SM BR OVC020
     FM010800 20003KT 4SM BR OVC014
     FM011100 21003KT 5SM BR BKN023=



000
FTUS41 KRLX 312000 AAA
TAFBKW
TAF AMD
KBKW 312000Z 3120/0118 25009KT P6SM SCT030 BKN070 OVC100
     FM312200 00000KT 6SM -SHRA BKN015 OVC030
     FM010100 21004KT 4SM SHRA SCT006 OVC025
     FM010300 24006KT 4SM BR OVC020
     FM010800 23005KT 1SM BR OVC002
     FM011300 24006KT P6SM OVC012=



000
FTUS41 KRLX 311900 AAA
TAFCRW
TAF AMD
KCRW 311912Z 3119/0118 23008KT P6SM -RA BKN025 OVC060
      TEMPO 3119/3121 VRB10G20KT 2SM SHRA BKN015
     FM312200 22005KT 6SM -SHRA BR VCTS SCT011 OVC025CB
     FM010100 20006KT 5SM BR VCSH BKN010 OVC020
     FM010400 21006KT 4SM BR BKN006 OVC012
     FM010800 24002KT 1SM BR OVC014
     FM011000 22004KT 1/2SM FG BKN001=



000
FTUS41 KRLX 311700
TAFHTS
TAF
KHTS 311729Z 3118/0118 20005KT 6SM -RA BKN015 BKN025 OVC060
     FM312200 18005KT 4SM SHRA BR OVC013
     FM010300 23008KT 4SM BR OVC014
     FM011100 22004KT 2SM BR SCT003 BKN017
     FM011300 21006KT 4SM BR BKN020
     FM011500 22007KT P6SM SCT025=



000
FTUS41 KRLX 311700
TAFCRW
TAF
KCRW 311729Z 3118/0118 24010KT 6SM -SHRA BKN025 OVC060
      TEMPO 3118/3121 VRB10G20KT 2SM SHRA SCT015
     FM312200 22005KT 6SM -SHRA BR VCTS SCT011 OVC025CB
     FM010100 20006KT 5SM BR VCSH BKN010 OVC020
     FM010400 21006KT 4SM BR BKN006 OVC012
     FM010800 24002KT 1SM BR OVC014
     FM011000 22004KT 1/2SM FG BKN001=



000
FTUS41 KRLX 311700
TAFBKW
TAF
KBKW 311729Z 3118/0118 25009KT 6SM -RA BKN070 OVC100
      TEMPO 3118/3122 3SM SHRA BR BKN012 OVC025
     FM312200 00000KT 6SM -SHRA BKN015 OVC030
     FM010100 21004KT 4SM SHRA SCT006 OVC025
     FM010300 24006KT 4SM BR OVC020
     FM010800 23005KT 1SM BR OVC002
     FM011300 24006KT P6SM OVC012=



000
FTUS41 KRLX 311700
TAFCKB
TAF
KCKB 311729Z 3118/0118 23009KT 6SM -RA SCT015 BKN025
     FM312100 21005KT 5SM -SHRA BR BKN011 OVC022
     FM010000 VRB03KT 4SM SHRA BR SCT006 OVC015
     FM010600 20005KT 4SM BR OVC020
     FM010800 20003KT 4SM BR OVC014
     FM011100 21003KT 5SM BR BKN023=



000
FTUS41 KRLX 311700
TAFPKB
TAF
KPKB 311729Z 3118/0118 21005KT 6SM -RA BR BKN011 OVC025
      TEMPO 3118/3121 3SM BR SCT006 BKN035
     FM312100 21005KT 4SM SHRA BR BKN009 OVC022
     FM010300 16004KT 4SM BR OVC015
     FM010600 24004KT 2SM BR OVC008
     FM011000 20004KT 4SM BR BKN016
     FM011300 21005KT 4SM BR BKN020=



000
FTUS41 KRLX 311700
TAFEKN
TAF
KEKN 311729Z 3118/0118 24006KT P6SM BKN035 OVC050
     FM312200 00000KT 4SM SHRA BR SCT006 BKN012
     FM010500 20004KT 3SM BR SCT002 OVC040
     FM010900 26004KT 1SM BR BKN001 OVC018
     FM011400 24006KT 6SM BR BKN023=



000
FTUS41 KRLX 311700 AAB
TAFPKB
TAF AMD
KPKB 311700Z 3117/0112 22007KT 4SM -RA BR BKN009 OVC025
     FM312100 21005KT 4SM SHRA BR SCT015 OVC018
     FM010300 16004KT 4SM BR OVC015
     FM010600 24004KT 2SM BR OVC015=



000
FTUS41 KRLX 311400 AAA
TAFHTS
TAF AMD
KHTS 311451Z 3115/0112 21006KT 6SM -RA BR BKN015 OVC025
      TEMPO 3116/3119 4SM -RA BR SCT015
     FM311900 20005KT 6SM -SHRA VCTS OVC013CB
     FM312200 18005KT 4SM SHRA BR OVC017
     FM010300 23008KT 4SM BR OVC014
     FM011100 22004KT 2SM BR BKN018=



000
FTUS41 KRLX 311400 AAA
TAFBKW
TAF AMD
KBKW 311451Z 3115/0112 22007KT P6SM BKN070 OVC100
     FM311900 24006KT P6SM TSRA BKN035CB
     FM312100 00000KT 6SM -SHRA OVC030
     FM010100 21004KT 4SM SHRA OVC045
     FM010300 24006KT 4SM BR OVC020=



000
FTUS41 KRLX 311400 AAA
TAFEKN
TAF AMD
KEKN 311451Z 3115/0112 20004KT P6SM SCT040 OVC090
     FM311900 25006KT 6SM -SHRA VCTS OVC040CB
     FM312200 00000KT 5SM SHRA BR VCTS OVC050CB
     FM010500 20004KT 3SM BR OVC040
     FM011100 26004KT 1SM BR OVC018=



000
FTUS41 KRLX 311400 AAA
TAFCRW
TAF AMD
KCRW 311451Z 3115/0112 22005KT P6SM SCT030 OVC090
     FM311600 21006KT P6SM OVC030
     FM311800 23006KT 6SM -SHRA VCTS OVC035CB
      TEMPO 3118/3121 VRB10G20KT 2SM TSRA OVC030CB
     FM312200 22005KT 6SM -SHRA BR VCTS OVC025CB
     FM010100 20006KT 5SM BR VCSH OVC020
     FM010400 21006KT 4SM BR OVC015
     FM010800 24002KT 1SM BR OVC014=



000
FTUS41 KRLX 311400 AAA
TAFCKB
TAF AMD
KCKB 311451Z 3115/0112 21006KT 6SM -SHRA BR SCT040 BKN070
     FM312000 21005KT 4SM TSRA BR OVC025CB
     FM312200 21006KT 4SM SHRA BR VCTS OVC025CB
     FM010000 VRB03KT 4SM SHRA BR OVC015
     FM010600 20005KT 4SM BR OVC020=



000
FTUS41 KRLX 311400 AAA
TAFPKB
TAF AMD
KPKB 311451Z 3115/0112 22007KT P6SM VCSH BKN015 OVC035
     FM311700 VRB03KT 6SM -SHRA VCTS OVC025CB
     FM312100 21005KT 4SM SHRA BR OVC018
     FM010300 16004KT 4SM BR OVC015
     FM010600 24004KT 2SM BR OVC015=



000
FTUS41 KRLX 311100
TAFBKW
TAF
KBKW 311120Z 3112/0112 19009KT P6SM BKN070 OVC100
     FM311500 23008KT P6SM OVC050
     FM311900 24006KT P6SM TSRA BKN035CB
     FM312100 00000KT 6SM -SHRA OVC030
     FM010100 21004KT 4SM SHRA OVC045
     FM010300 24006KT 4SM BR OVC020=



000
FTUS41 KRLX 311100
TAFEKN
TAF
KEKN 311120Z 3112/0112 00000KT 6SM -SHRA BR BKN040 OVC090
      TEMPO 3112/3113 3SM -SHRA BR BKN028
     FM311600 25007KT P6SM VCSH OVC060
     FM311900 25006KT 6SM -SHRA VCTS OVC040CB
     FM312200 00000KT 5SM SHRA BR VCTS OVC050CB
     FM010500 20004KT 3SM BR OVC040
     FM011100 26004KT 1SM BR OVC018=



000
FTUS41 KRLX 311100
TAFCRW
TAF
KCRW 311120Z 3112/0112 19005KT P6SM OVC090
     FM311500 21006KT P6SM OVC030
     FM311800 23006KT 6SM -SHRA VCTS OVC035CB
      TEMPO 3118/3121 VRB10G20KT 2SM TSRA OVC030CB
     FM312200 22005KT 6SM -SHRA BR VCTS OVC025CB
     FM010100 20006KT 5SM BR VCSH OVC020
     FM010400 21006KT 4SM BR OVC015
     FM010800 24002KT 1SM BR OVC014=



000
FTUS41 KRLX 311100
TAFHTS
TAF
KHTS 311120Z 3112/0112 21003KT P6SM VCSH BKN035
     FM311300 VRB03KT 6SM -SHRA OVC024
     FM311600 20005KT 4SM -SHRA OVC018
     FM311900 20005KT 6SM -SHRA VCTS OVC013CB
     FM312200 18005KT 4SM SHRA BR OVC017
     FM010300 23008KT 4SM BR OVC014
     FM011100 22004KT 2SM BR BKN018=



000
FTUS41 KRLX 311100
TAFCKB
TAF
KCKB 311120Z 3112/0112 22006KT 6SM -RA FEW040 SCT045 OVC060
     FM311600 23004KT 6SM -SHRA BR VCTS OVC040CB
     FM312000 21005KT 4SM TSRA BR OVC025CB
     FM312200 21006KT 4SM SHRA BR VCTS OVC025CB
     FM010000 VRB03KT 4SM SHRA BR OVC015
     FM010600 20005KT 4SM BR OVC020=



000
FTUS41 KRLX 311100
TAFPKB
TAF
KPKB 311120Z 3112/0112 20007KT P6SM VCSH SCT012 OVC040
      TEMPO 3112/3114 VRB04KT 2SM SHRA BR SCT008 BKN022
     FM311400 VRB03KT 4SM -SHRA OVC018
     FM311800 VRB03KT 6SM -SHRA VCTS OVC025CB
     FM312100 21005KT 4SM SHRA BR OVC018
     FM010300 16004KT 4SM BR OVC015
     FM010600 24004KT 2SM BR OVC015=



000
FTUS41 KRLX 310900 AAA
TAFCKB
TAF AMD
KCKB 310903Z 3109/0106 22007KT 5SM -SHRA OVC050
     FM311100 22007KT P6SM OVC040
     FM311600 22005KT 5SM SHRA BR VCTS OVC040CB
     FM312000 21006KT 6SM -SHRA VCTS OVC040CB
     FM010000 VRB03KT 6SM -SHRA BR OVC045
     FM010300 00000KT 4SM SHRA BR OVC025=



000
FTUS41 KRLX 310900 AAA
TAFPKB
TAF AMD
KPKB 310903Z 3109/0106 14003KT P6SM FEW008 BKN100
     FM311200 VRB03KT 6SM -SHRA OVC020
     FM311600 VRB03KT 3SM SHRA VCTS OVC035CB
     FM311900 21007KT 6SM -SHRA VCTS OVC040CB
     FM010000 21005KT 4SM SHRA BR OVC028
     FM010300 16004KT P6SM OVC016=



000
FTUS41 KRLX 310900 AAA
TAFEKN
TAF AMD
KEKN 310903Z 3109/0106 00000KT P6SM FEW060 BKN070 BKN120
     FM311000 21004KT 6SM -SHRA OVC040
     FM311200 25007KT 6SM BR VCSH OVC035
     FM311900 25006KT 4SM SHRA VCTS OVC050CB PROB30 3119/3121 2SM
      TSRA OVC029CB
     FM010100 00000KT 6SM -SHRA OVC040
     FM010500 20004KT 5SM SHRA OVC030=



000
FTUS41 KRLX 310900 AAA
TAFHTS
TAF AMD
KHTS 310903Z 3109/0106 22004KT P6SM FEW110
     FM311100 VRB03KT P6SM VCSH OVC022
     FM311600 22007KT 3SM SHRA VCTS OVC024CB
     FM312200 20005KT 6SM -SHRA BR VCTS OVC040CB
     FM010000 18005KT 5SM SHRA BR OVC035
     FM010300 23008KT P6SM OVC017=



000
FTUS41 KRLX 310900 AAA
TAFBKW
TAF AMD
KBKW 310903Z 3109/0106 24004KT 6SM -SHRA SCT040 OVC060
     FM311600 23007KT P6SM VCSH BKN050
     FM312000 24006KT 6SM -SHRA VCTS BKN050CB PROB30 3120/3122 2SM
      -TSRA OVC030CB
     FM010000 00000KT 6SM -SHRA OVC060
     FM010300 23007KT 4SM BR OVC025=



000
FTUS41 KRLX 310900 AAB
TAFCRW
TAF AMD
KCRW 310903Z 3109/0106 16007KT 6SM -RA BR FEW018 SCT040 BKN110
     FM311000 22005KT P6SM OVC020
     FM311700 23006KT 6SM BR VCTS OVC025CB
     FM311800 23006KT 4SM SHRA VCTS OVC040CB PROB30 3118/3121 2SM
      TSRA OVC030CB
     FM312100 22005KT 6SM -SHRA VCTS OVC050CB
     FM010300 20006KT P6SM VCSH OVC035
     FM010500 22006KT P6SM OVC022=



000
FTUS41 KRLX 310800 AAA
TAFCRW
TAF AMD
KCRW 310805Z 3108/0106 22004KT 5SM -SHRA VCTS BKN040CB OVC070
      TEMPO 3108/3109 VRB10G20KT 2SM -TSRA SCT018 OVC035CB
     FM310900 00000KT 6SM -SHRA BR OVC050
     FM311200 22005KT P6SM OVC020
     FM311700 23006KT 6SM BR VCTS OVC025CB
     FM311800 23006KT 4SM SHRA VCTS OVC040CB PROB30 3118/3121 2SM
      TSRA OVC030CB
     FM312100 22005KT 6SM -SHRA VCTS OVC050CB
     FM010300 20006KT P6SM VCSH OVC035
     FM010500 22006KT P6SM OVC022=



000
FTUS41 KRLX 310500 RRA
TAFCRW
TAF
KCRW 310543Z 3106/0106 00000KT 6SM SHRA VCTS OVC070CB
     FM310900 00000KT 6SM -SHRA BR OVC050
     FM311200 22005KT P6SM OVC020
     FM311700 23006KT 6SM BR VCTS OVC025CB
     FM311800 23006KT 4SM SHRA VCTS OVC040CB PROB30 3118/3121 2SM
      TSRA OVC030CB
     FM312100 22005KT 6SM -SHRA VCTS OVC050CB
     FM010300 20006KT P6SM VCSH OVC035
     FM010500 22006KT P6SM OVC022=



000
FTUS41 KRLX 310500 RRA
TAFEKN
TAF
KEKN 310543Z 3106/0106 18005KT P6SM BKN150
     FM311200 21004KT 6SM -SHRA OVC040
     FM311600 25007KT 6SM BR VCSH OVC035
     FM311900 25006KT 4SM SHRA VCTS OVC050CB PROB30 3119/3121 2SM
      TSRA OVC029CB
     FM010100 00000KT 6SM -SHRA OVC040
     FM010500 20004KT 5SM SHRA OVC030=



000
FTUS41 KRLX 310500 RRA
TAFPKB
TAF
KPKB 310543Z 3106/0106 VRB03KT 6SM SHRA OVC060
     FM310900 00000KT 5SM SHRA OVC035
     FM311200 VRB03KT 6SM -SHRA OVC020
     FM311600 VRB03KT 3SM SHRA VCTS OVC035CB PROB30 3116/3119 2SM
      TSRA OVC030CB
     FM311900 21007KT 6SM -SHRA VCTS OVC040CB
     FM010000 21005KT 4SM SHRA BR OVC028
     FM010300 16004KT P6SM OVC016=



000
FTUS41 KRLX 310500 RRA
TAFBKW
TAF
KBKW 310543Z 3106/0106 17008KT P6SM OVC150
     FM311200 19007KT 6SM -SHRA OVC060
     FM311600 23007KT P6SM VCSH BKN050
     FM312000 24006KT 6SM -SHRA VCTS BKN050CB PROB30 3120/3122 2SM
      -TSRA OVC030CB
     FM010000 00000KT 6SM -SHRA OVC060
     FM010300 23007KT 4SM BR OVC025=



000
FTUS41 KRLX 310500 RRA
TAFHTS
TAF
KHTS 310543Z 3106/0106 19010KT 3SM SHRA SCT010 BKN040 OVC090
      TEMPO 3106/3109 6SM SHRA
     FM311100 VRB03KT P6SM VCSH OVC022
     FM311600 22007KT 3SM SHRA VCTS OVC024CB PROB30 3116/3119 2SM
      TSRA OVC030CB
     FM312200 20005KT 6SM -SHRA BR VCTS OVC040CB
     FM010000 18005KT 5SM SHRA BR OVC035
     FM010300 23008KT P6SM OVC017=



000
FTUS41 KRLX 310500 RRA
TAFCKB
TAF
KCKB 310543Z 3106/0106 VRB03KT P6SM BKN060
     FM311100 00000KT 6SM -SHRA OVC050
     FM311700 22005KT 5SM SHRA BR VCTS OVC040CB PROB30 3117/3120 2SM
      TSRA OVC028CB
     FM312000 21006KT 6SM -SHRA VCTS OVC040CB
     FM010000 VRB03KT 6SM -SHRA BR OVC045
     FM010300 00000KT 4SM SHRA BR OVC025=



000
FTUS41 KRLX 310200 AAA
TAFEKN
TAF AMD
KEKN 310244Z 3103/3124 17005KT P6SM BKN250
     FM310700 25005KT 5SM BR OVC060
     FM311000 24005KT 6SM -SHRA OVC045
      TEMPO 3110/3113 5SM SHRA
     FM311800 25008KT 6SM SHRA VCTS OVC040CB PROB30 3119/3121 2SM
      -TSRA OVC050CB
     FM312200 25007KT P6SM OVC050=



000
FTUS41 KRLX 310200 AAA
TAFBKW
TAF AMD
KBKW 310244Z 3103/3124 18008KT P6SM SCT250
     FM311000 00000KT P6SM -SHRA BKN090
      TEMPO 3110/3113 5SM SHRA
     FM311800 23009KT 6SM SHRA VCTS OVC040CB PROB30 3119/3121 2SM
      -TSRA OVC050CB
     FM312200 24005KT P6SM BKN060=



000
FTUS41 KRLX 310200 AAA
TAFPKB
TAF AMD
KPKB 310244Z 3103/3124 19004KT P6SM SCT250
     FM310900 21006KT P6SM -SHRA OVC035
      TEMPO 3110/3114 5SM SHRA OVC030
     FM311400 19005KT P6SM -SHRA OVC025
     FM311600 23006KT 4SM SHRA VCTS OVC025CB PROB30 3116/3119 2SM
      -TSRA OVC025CB
     FM312000 22006KT 6SM SHRA OVC040=



000
FTUS41 KRLX 310200 AAA
TAFHTS
TAF AMD
KHTS 310244Z 3103/3124 20006KT P6SM SCT250
     FM310400 21005KT P6SM SHRA VCTS OVC060CB
      TEMPO 3104/3108 5SM TSRA
     FM311200 19006KT P6SM -SHRA OVC030
     FM311600 23006KT 4SM SHRA VCTS OVC025CB PROB30 3116/3119 2SM
      -TSRA OVC025CB
     FM312000 23008KT P6SM OVC035=



000
FTUS41 KRLX 310200 AAA
TAFCKB
TAF AMD
KCKB 310244Z 3103/3124 VRB03KT P6SM SCT250
     FM311000 21005KT P6SM -SHRA OVC060
      TEMPO 3110/3113 5SM SHRA
     FM311800 23008KT 6SM SHRA VCTS OVC040CB PROB30 3119/3121 2SM
      -TSRA OVC050CB
     FM312100 22008KT 6SM -SHRA OVC045=



000
FTUS41 KRLX 310200 AAA
TAFCRW
TAF AMD
KCRW 310244Z 3103/3124 20004KT P6SM SCT250
     FM310700 VRB03KT P6SM -SHRA OVC070
     FM311600 23008KT 6SM SHRA VCTS OVC040CB PROB30 3118/3121 2SM
      -TSRA OVC050CB
     FM312200 25007KT P6SM BKN050=



000
FTUS41 KRLX 302300 RRA
TAFCRW
TAF
KCRW 302346Z 3100/3124 20004KT P6SM SCT250
     FM310900 VRB03KT P6SM OVC070 PROB30 3109/3112 5SM -TSRA
      OVC050CB
     FM311600 23008KT 3SM SHRA VCTS OVC040CB PROB30 3118/3120 2SM
      -TSRA OVC050CB
     FM312000 25007KT P6SM BKN050=



000
FTUS41 KRLX 302300 RRA
TAFPKB
TAF
KPKB 302346Z 3100/3124 19004KT P6SM SCT250
     FM310900 21006KT 6SM -SHRA OVC035 PROB30 3109/3112 5SM -TSRA
      OVC030CB
     FM311200 19005KT P6SM VCSH OVC025
     FM311600 23006KT 4SM SHRA VCTS OVC025CB PROB30 3116/3119 2SM
      -TSRA OVC025CB
     FM312000 22006KT 6SM SHRA OVC040=



000
FTUS41 KRLX 302300 RRA
TAFCKB
TAF
KCKB 302346Z 3100/3124 VRB03KT P6SM SCT250
     FM310900 21005KT P6SM VCSH BKN060 PROB30 3109/3111 4SM -TSRA
      OVC050CB
     FM311800 23008KT 3SM SHRA VCTS OVC040CB PROB30 3118/3120 2SM
      -TSRA OVC050CB
     FM312000 22008KT 6SM -SHRA OVC045=



000
FTUS41 KRLX 302300 RRA
TAFHTS
TAF
KHTS 302346Z 3100/3124 20006KT P6SM SCT250
     FM310700 21005KT 3SM SHRA VCTS OVC060CB
     FM310900 19006KT P6SM VCSH OVC035 PROB30 3109/3112 5SM -TSRA
      OVC030CB
     FM311400 23006KT 4SM SHRA VCTS OVC025CB PROB30 3115/3118 2SM
      -TSRA OVC025CB
     FM311800 23008KT P6SM OVC035=



000
FTUS41 KRLX 302300 RRA
TAFEKN
TAF
KEKN 302346Z 3100/3124 17005KT P6SM BKN250
     FM310800 25005KT 5SM BR VCSH OVC045
     FM311200 24005KT P6SM OVC045
     FM311800 25008KT 3SM SHRA VCTS OVC040CB PROB30 3118/3120 2SM
      -TSRA OVC050CB
     FM312200 25007KT P6SM OVC050=



000
FTUS41 KRLX 302300 RRA
TAFBKW
TAF
KBKW 302346Z 3100/3124 18008KT P6SM SCT250
     FM310600 22004KT P6SM BKN100
     FM310800 00000KT P6SM VCSH BKN090
     FM311800 23009KT 3SM SHRA VCTS OVC040CB PROB30 3118/3120 2SM
      -TSRA OVC050CB
     FM312100 24005KT P6SM BKN060=



000
FTUS41 KRLX 301700
TAFCRW
TAF
KCRW 301728Z 3018/3118 21007G14KT P6SM SCT050
     FM310000 VRB03KT P6SM SCT050
     FM310200 21004KT P6SM BKN070
     FM310900 23005KT 5SM -SHRA BR OVC045
     FM311200 22004KT 3SM SHRA BR VCTS OVC030CB=



000
FTUS41 KRLX 301700
TAFCKB
TAF
KCKB 301728Z 3018/3118 20008KT P6SM SCT045
     FM302000 19009KT P6SM BKN040
     FM310100 VRB03KT P6SM BKN045
     FM310800 20004KT 6SM -SHRA BR BKN080
     FM311600 24004KT 4SM -SHRA BR VCTS OVC100CB=



000
FTUS41 KRLX 301700
TAFEKN
TAF
KEKN 301728Z 3018/3118 24005KT P6SM SCT050 SCT070
     FM302000 VRB03KT P6SM BKN045
     FM311000 23004KT 6SM -SHRA BR BKN150
     FM311600 25006KT 5SM -TSRA BR BKN035CB=



000
FTUS41 KRLX 301700
TAFPKB
TAF
KPKB 301728Z 3018/3118 19010KT P6SM SCT100
     FM301900 21008KT P6SM SCT040
     FM310800 22005KT 4SM SHRA BR VCTS OVC040CB
     FM311400 22005KT 3SM TSRA BR OVC050CB=



000
FTUS41 KRLX 301700
TAFHTS
TAF
KHTS 301728Z 3018/3118 22006KT P6SM SCT100
     FM310100 20004KT P6SM BKN060
     FM310600 21004KT 6SM -SHRA BR OVC060
     FM310800 21005KT 3SM SHRA BR VCTS OVC040CB
     FM311500 21005KT 3SM TSRA BR OVC025CB=



000
FTUS41 KRLX 301700
TAFBKW
TAF
KBKW 301728Z 3018/3118 20007KT P6SM SCT045
     FM302000 20008KT P6SM BKN040
     FM310200 18006KT P6SM BKN035 BKN100
     FM311100 22004KT 6SM -SHRA BR BKN050 OVC100
     FM311500 00000KT 4SM -TSRA BR BKN035CB=



000
FTUS41 KRLX 301100
TAFCRW
TAF
KCRW 301125Z 3012/3112 00000KT P6SM FEW002 BKN080 BKN090
     FM301500 21007KT P6SM SCT050
     FM310000 VRB03KT P6SM SCT050
     FM310200 21004KT P6SM BKN070
     FM310900 23005KT 5SM SHRA BR OVC045=



000
FTUS41 KRLX 301100
TAFBKW
TAF
KBKW 301125Z 3012/3112 VRB03KT P6SM BKN100
     FM301900 20008KT P6SM BKN040
     FM311100 22004KT 6SM -SHRA BR OVC050=



000
FTUS41 KRLX 301100
TAFCKB
TAF
KCKB 301125Z 3012/3112 00000KT P6SM SKC
     FM301700 22006KT P6SM SCT045
     FM310100 VRB03KT P6SM BKN045
     FM310800 20004KT 6SM -SHRA BR BKN080=



000
FTUS41 KRLX 301100
TAFEKN
TAF
KEKN 301125Z 3012/3112 13004KT P6SM BKN060
     FM301600 24005KT P6SM SCT050
     FM302000 VRB03KT P6SM BKN045
     FM311000 23004KT 6SM -SHRA BR BKN150=



000
FTUS41 KRLX 301100
TAFHTS
TAF
KHTS 301125Z 3012/3112 20006KT P6SM FEW100
     FM310100 22006KT P6SM BKN060
     FM310600 21006KT 6SM -SHRA BR OVC060
     FM310800 21005KT 4SM SHRA BR VCTS OVC040CB=



000
FTUS41 KRLX 301100
TAFPKB
TAF
KPKB 301125Z 3012/3112 17003KT P6SM OVC100
     FM301400 19006KT P6SM SCT060
     FM301900 21008KT P6SM SCT040
     FM310800 22005KT 4SM SHRA BR VCTS OVC040CB=



000
FTUS41 KRLX 300900 AAA
TAFBKW
TAF AMD
KBKW 300902Z 3009/3106 16005KT P6SM OVC110
     FM301200 VRB03KT P6SM SCT035
     FM301500 18007KT P6SM FEW045
     FM310000 VRB03KT P6SM BKN050=



000
FTUS41 KRLX 300900 AAA
TAFCKB
TAF AMD
KCKB 300902Z 3009/3106 00000KT P6SM SKC
     FM301000 00000KT 6SM BR BKN060
     FM301400 VRB03KT P6SM BKN080
     FM301700 22005KT P6SM SCT050
     FM310100 VRB03KT P6SM BKN045=



000
FTUS41 KRLX 300900 AAA
TAFEKN
TAF AMD
KEKN 300902Z 3009/3106 00000KT P6SM SKC
     FM301100 00000KT 4SM BR BKN060
     FM301200 00000KT P6SM BKN070
     FM301700 25004KT P6SM SCT045=



000
FTUS41 KRLX 300900 AAA
TAFCRW
TAF AMD
KCRW 300902Z 3009/3106 00000KT P6SM FEW002 BKN090 BKN110
     FM301300 18004KT P6SM FEW060
     FM310200 VRB03KT P6SM BKN050=



000
FTUS41 KRLX 300900 AAA
TAFHTS
TAF AMD
KHTS 300902Z 3009/3106 19003KT P6SM FEW100
     FM301400 19005KT P6SM SCT050
     FM310100 22005KT P6SM BKN060=



000
FTUS41 KRLX 300900 AAA
TAFPKB
TAF AMD
KPKB 300902Z 3009/3106 17005KT P6SM BKN100
     FM301300 18005KT P6SM SCT060
     FM301900 20008KT P6SM SCT040
     FM310100 20004KT P6SM BKN070=



000
FTUS41 KRLX 300500
TAFHTS
TAF
KHTS 300538Z 3006/3106 VRB03KT P6SM SCT200
     FM301000 00000KT 4SM BR SCT060
     FM301200 VRB03KT 6SM BR FEW070
     FM301300 19005KT P6SM SCT050
     FM310100 22005KT P6SM BKN060=



000
FTUS41 KRLX 300500
TAFCRW
TAF
KCRW 300538Z 3006/3106 00000KT 6SM BR FEW002
      TEMPO 3006/3008 3SM BR
     FM300800 00000KT 6SM BR BKN050
     FM301000 00000KT 4SM BR SCT090
     FM301300 18004KT P6SM FEW060
     FM310200 VRB03KT P6SM BKN050=



000
FTUS41 KRLX 300500
TAFCKB
TAF
KCKB 300538Z 3006/3106 00000KT P6SM SKC
     FM301000 00000KT 6SM BR BKN060
     FM301400 VRB03KT P6SM BKN080
     FM301700 22005KT P6SM SCT050
     FM310100 VRB03KT P6SM BKN045=



000
FTUS41 KRLX 300500
TAFEKN
TAF
KEKN 300538Z 3006/3106 00000KT P6SM SKC
     FM300700 00000KT 2SM BR FEW150
     FM300900 00000KT 1/4SM FG VV001
     FM301100 00000KT 4SM BR BKN060
     FM301200 00000KT P6SM BKN070
     FM301700 25004KT P6SM SCT045=



000
FTUS41 KRLX 300500
TAFPKB
TAF
KPKB 300538Z 3006/3106 00000KT P6SM FEW200
     FM301100 VRB03KT 4SM BR BKN050
     FM301300 18005KT P6SM SCT035
     FM302000 20008KT P6SM SCT045
     FM310100 20004KT P6SM BKN070=



000
FTUS41 KRLX 300500
TAFBKW
TAF
KBKW 300538Z 3006/3106 13010KT P6SM BKN080
     FM301200 VRB03KT P6SM SCT035
     FM301500 18007KT P6SM FEW045
     FM310000 VRB03KT P6SM BKN050=



000
FTUS41 KRLX 300200 AAA
TAFEKN
TAF AMD
KEKN 300231Z 3003/3024 00000KT P6SM SKC
     FM300500 00000KT 5SM BR FEW250
     FM300700 00000KT 1/4SM FG VV001
     FM301000 00000KT 3SM BR SCT001 SCT250
     FM301200 00000KT P6SM BKN040
     FM301600 26005KT P6SM FEW040=



000
FTUS41 KRLX 300200 AAA
TAFCRW
TAF AMD
KCRW 300231Z 3003/3024 00000KT P6SM FEW250
     FM300600 00000KT 5SM BR SCT080
     FM301200 VRB03KT P6SM SCT080=



000
FTUS41 KRLX 300200 AAA
TAFHTS
TAF AMD
KHTS 300231Z 3003/3024 VRB03KT P6SM FEW250
     FM301000 VRB03KT 5SM BR SCT080
     FM301200 VRB03KT P6SM FEW250=



000
FTUS41 KRLX 300200 AAA
TAFPKB
TAF AMD
KPKB 300231Z 3003/3024 00000KT P6SM SKC
     FM300900 00000KT 5SM BR SCT250
     FM301200 VRB03KT P6SM SCT045=



000
FTUS41 KRLX 300200 AAA
TAFBKW
TAF AMD
KBKW 300231Z 3003/3024 13004KT P6SM FEW045
     FM301500 18006G12KT P6SM SCT250
     FM301800 20006KT P6SM FEW045=



000
FTUS41 KRLX 300200 AAA
TAFCKB
TAF AMD
KCKB 300231Z 3003/3024 00000KT P6SM SKC
     FM301100 VRB03KT P6SM SCT040
     FM301400 VRB03KT P6SM SCT090=



    US Dept of Commerce
    National Oceanic and Atmospheric Administration
    National Weather Service
    1325 East West Highway
    Silver Spring, MD 20910
    Page Author: NWS Internet Services Team
Disclaimer
Information Quality
Credits
Glossary
Privacy Policy
Freedom of Information Act (FOIA)
About Us
Career Opportunities